Time;durP1;ratioP1;P1;durP2;ratioP2;P2;SDS_P1;SDS_P2;PMS_P1;PMS_P2;Temp;Humidity;BMP_temperature;BMP_pressure;BME280_temperature;BME280_humidity;BME280_pressure;Samples;Min_cycle;Max_cycle;Signal;HPM_P1;HPM_P2
2022/01/10 00:01:17;;;;;;;3.13;2.00;;;24.40;58.10;;;;;;4178769;28;21060;-52
2022/01/10 00:03:20;;;;;;;3.53;2.03;;;24.40;58.10;;;;;;4155966;28;20032;-49
2022/01/10 00:05:22;;;;;;;3.63;2.13;;;24.30;58.30;;;;;;4157904;28;20052;-47
2022/01/10 00:07:24;;;;;;;3.63;2.00;;;24.30;58.20;;;;;;4167477;28;20857;-48
2022/01/10 00:09:27;;;;;;;3.92;1.90;;;24.20;58.30;;;;;;4158959;28;20036;-49
2022/01/10 00:11:29;;;;;;;3.63;1.90;;;24.20;58.40;;;;;;4158945;28;20117;-52
2022/01/10 00:13:31;;;;;;;3.78;1.75;;;24.10;58.10;;;;;;4165616;28;20048;-46
2022/01/10 00:15:33;;;;;;;3.58;1.90;;;24.00;58.00;;;;;;4162770;28;20089;-45
2022/01/10 00:17:38;;;;;;;4.75;1.58;;;24.00;58.00;;;;;;4155676;28;20036;-50
2022/01/10 00:19:40;;;;;;;4.28;1.85;;;23.90;57.90;;;;;;4156552;28;20036;-51
2022/01/10 00:21:42;;;;;;;3.05;2.00;;;23.90;58.20;;;;;;4167030;28;20044;-48
2022/01/10 00:23:45;;;;;;;3.33;1.88;;;23.80;58.00;;;;;;4157992;28;20036;-47
2022/01/10 00:25:47;;;;;;;3.00;1.65;;;23.70;58.10;;;;;;4157474;28;20059;-49
2022/01/10 00:27:53;;;;;;;2.88;1.83;;;23.70;58.20;;;;;;4172171;28;20040;-50
2022/01/10 00:29:55;;;;;;;2.78;1.83;;;23.70;58.10;;;;;;4169049;28;20180;-51
2022/01/10 00:31:57;;;;;;;2.88;1.95;;;23.60;58.20;;;;;;4165381;28;20032;-48
2022/01/10 00:33:59;;;;;;;4.57;2.20;;;23.60;58.10;;;;;;4165033;28;20754;-48
2022/01/10 00:36:02;;;;;;;5.55;2.30;;;23.50;59.00;;;;;;4176886;28;20036;-47
2022/01/10 00:38:04;;;;;;;4.93;2.10;;;23.50;60.10;;;;;;4162280;28;20097;-46
2022/01/10 00:40:06;;;;;;;7.22;2.20;;;23.60;60.70;;;;;;4162169;28;20036;-44
2022/01/10 00:42:09;;;;;;;3.35;2.08;;;23.60;61.30;;;;;;4164794;28;20768;-46
2022/01/10 00:44:12;;;;;;;4.10;2.13;;;23.70;62.00;;;;;;4164615;28;20179;-49
2022/01/10 00:46:14;;;;;;;4.30;2.03;;;23.70;60.60;;;;;;4159431;28;20513;-44
2022/01/10 00:48:17;;;;;;;3.47;2.03;;;23.60;59.60;;;;;;4160262;28;20027;-49
2022/01/10 00:50:20;;;;;;;4.30;2.30;;;23.60;59.30;;;;;;4169199;28;20044;-49
2022/01/10 00:52:22;;;;;;;4.50;2.50;;;23.50;59.10;;;;;;4159374;28;21116;-49
2022/01/10 00:54:24;;;;;;;4.53;2.22;;;23.50;59.10;;;;;;4160834;28;20287;-45
2022/01/10 00:56:26;;;;;;;4.68;2.50;;;23.40;59.40;;;;;;4166641;28;20082;-48
2022/01/10 00:58:28;;;;;;;5.70;2.60;;;23.40;60.40;;;;;;4160798;28;21845;-44
2022/01/10 01:02:12;;;;;;;3.35;2.15;;;23.60;62.70;;;;;;4141800;27;20430;-47
2022/01/10 01:04:15;;;;;;;4.97;2.70;;;23.70;63.80;;;;;;4144858;28;20122;-45
2022/01/10 01:06:17;;;;;;;4.43;2.35;;;23.60;62.40;;;;;;4161477;28;20087;-47
2022/01/10 01:08:19;;;;;;;4.50;2.43;;;23.60;62.00;;;;;;4150228;28;20865;-49
2022/01/10 01:12:52;;;;;;;4.63;2.35;;;23.50;61.50;;;;;;4151249;28;20032;-50
2022/01/10 01:14:57;;;;;;;4.57;2.30;;;23.50;61.40;;;;;;4149859;28;20036;-45
2022/01/10 01:17:09;;;;;;;3.70;2.10;;;23.40;62.40;;;;;;4149351;28;20036;-47
2022/01/10 01:19:53;;;;;;;4.45;2.58;;;23.50;63.30;;;;;;4150205;28;20064;-45
2022/01/10 01:24:03;;;;;;;4.95;2.40;;;23.60;63.90;;;;;;4156948;28;20455;-52
2022/01/10 01:26:09;;;;;;;3.85;2.03;;;23.60;62.30;;;;;;4157802;28;20036;-54
2022/01/10 01:28:11;;;;;;;4.38;2.13;;;23.60;61.50;;;;;;4154853;28;20971;-50
2022/01/10 01:30:13;;;;;;;3.90;2.22;;;23.50;61.00;;;;;;4149939;28;20048;-50
2022/01/10 01:32:15;;;;;;;3.17;1.98;;;23.50;60.80;;;;;;4152449;28;20063;-51
2022/01/10 01:34:21;;;;;;;3.20;2.03;;;23.40;60.60;;;;;;4159972;28;20044;-51
2022/01/10 01:36:25;;;;;;;3.72;1.88;;;23.30;61.20;;;;;;4149499;28;20036;-52
2022/01/10 01:38:27;;;;;;;2.60;1.65;;;23.40;62.30;;;;;;4151467;28;20043;-52
2022/01/10 01:40:32;;;;;;;3.47;2.15;;;23.50;63.30;;;;;;4154045;28;20154;-49
2022/01/10 01:42:42;;;;;;;4.30;2.28;;;23.50;64.00;;;;;;4162304;28;20200;-51
2022/01/10 01:44:49;;;;;;;3.83;1.88;;;23.50;62.20;;;;;;4158944;28;20097;-52
2022/01/10 01:46:51;;;;;;;3.03;1.83;;;23.50;61.50;;;;;;4155189;28;20731;-53
2022/01/10 01:48:54;;;;;;;4.55;2.10;;;23.40;60.80;;;;;;4151510;28;20079;-50
2022/01/10 01:50:57;;;;;;;3.92;1.77;;;23.40;60.50;;;;;;4153863;28;20041;-49
2022/01/10 01:52:59;;;;;;;2.60;1.85;;;23.30;60.30;;;;;;4156693;28;20151;-52
2022/01/10 01:55:02;;;;;;;3.83;1.73;;;23.30;61.00;;;;;;4151945;28;20531;-51
2022/01/10 01:57:04;;;;;;;;;;;23.30;62.40;;;;;;4150150;28;20043;-47
2022/01/10 01:59:09;;;;;;;5.65;2.05;;;23.40;63.00;;;;;;4162959;28;19922;-46
2022/01/10 02:01:16;;;;;;;6.88;2.20;;;23.50;64.50;;;;;;4152983;28;20067;-52
2022/01/10 02:03:18;;;;;;;5.80;2.08;;;23.50;62.80;;;;;;4152901;28;20534;-51
2022/01/10 02:05:21;;;;;;;4.28;2.35;;;23.40;61.90;;;;;;4145328;28;20654;-51
2022/01/10 02:07:23;;;;;;;3.60;2.10;;;23.30;61.50;;;;;;4161064;28;20039;-46
2022/01/10 02:09:25;;;;;;;2.88;1.95;;;23.30;61.30;;;;;;4146443;28;20041;-48
2022/01/10 02:11:27;;;;;;;3.35;2.08;;;23.30;61.30;;;;;;4147519;28;21031;-46
2022/01/10 02:13:29;;;;;;;4.53;2.22;;;23.20;61.70;;;;;;4141498;28;20456;-44
2022/01/10 02:15:42;;;;;;;5.10;2.57;;;23.20;62.70;;;;;;4142903;28;20032;-48
2022/01/10 02:17:48;;;;;;;4.40;2.43;;;23.30;63.50;;;;;;4148598;28;20044;-50
2022/01/10 02:20:00;;;;;;;5.05;2.25;;;23.50;65.00;;;;;;4140042;28;20044;-47
2022/01/10 02:22:03;;;;;;;3.22;2.00;;;23.50;63.20;;;;;;4136451;28;20048;-50
2022/01/10 02:24:06;;;;;;;4.43;2.13;;;23.50;62.30;;;;;;4135029;28;20032;-52
2022/01/10 02:26:09;;;;;;;2.78;1.85;;;23.50;61.70;;;;;;4142874;28;20048;-48
2022/01/10 02:28:11;;;;;;;12.77;2.47;;;23.40;62.30;;;;;;4146470;28;20044;-45
2022/01/10 02:30:13;;;;;;;3.65;2.00;;;23.50;63.00;;;;;;4139993;28;20323;-50
2022/01/10 02:32:15;;;;;;;2.55;1.70;;;23.60;63.70;;;;;;4140972;28;20040;-51
2022/01/10 02:34:19;;;;;;;4.17;2.20;;;23.70;64.20;;;;;;4144071;28;20251;-51
2022/01/10 02:36:26;;;;;;;3.75;2.10;;;23.80;64.60;;;;;;4140432;28;20036;-50
2022/01/10 02:38:29;;;;;;;4.47;2.28;;;23.80;65.00;;;;;;4140446;28;20044;-49
2022/01/10 02:40:32;;;;;;;6.07;2.23;;;24.00;65.40;;;;;;4142351;28;20142;-51
2022/01/10 02:42:36;;;;;;;5.88;2.10;;;24.10;65.90;;;;;;4150054;28;20053;-48
2022/01/10 02:44:38;;;;;;;6.60;2.35;;;24.20;66.10;;;;;;4144280;28;20174;-46
2022/01/10 02:46:41;;;;;;;3.60;2.15;;;24.30;66.40;;;;;;4138138;28;20048;-47
2022/01/10 02:48:44;;;;;;;4.15;2.00;;;24.40;67.20;;;;;;4145573;28;20407;-50
2022/01/10 02:50:46;;;;;;;5.97;2.20;;;24.50;66.80;;;;;;4150890;28;21351;-50
2022/01/10 02:52:49;;;;;;;5.70;1.97;;;24.60;67.10;;;;;;4140506;28;20419;-49
2022/01/10 02:54:51;;;;;;;3.40;1.90;;;24.60;67.10;;;;;;4140027;28;20051;-47
2022/01/10 02:56:55;;;;;;;4.22;2.28;;;24.70;67.30;;;;;;4150805;28;21592;-50
2022/01/10 02:58:57;;;;;;;6.00;2.30;;;24.80;67.50;;;;;;4144592;28;20169;-50
2022/01/10 03:00:59;;;;;;;7.20;2.30;;;24.90;67.50;;;;;;4130437;28;20390;-51
2022/01/10 03:03:06;;;;;;;5.78;1.85;;;25.00;67.60;;;;;;4145201;28;20071;-50
2022/01/10 03:05:09;;;;;;;5.80;2.45;;;25.10;67.90;;;;;;4152826;28;20116;-50
2022/01/10 03:07:15;;;;;;;6.05;2.42;;;25.10;68.20;;;;;;4143579;28;22309;-48
2022/01/10 03:09:17;;;;;;;4.90;1.90;;;25.20;68.00;;;;;;4142873;28;20167;-50
2022/01/10 03:11:19;;;;;;;3.83;1.98;;;25.30;67.90;;;;;;4139994;28;20040;-50
2022/01/10 03:13:21;;;;;;;4.15;1.95;;;25.40;68.10;;;;;;4150664;28;20098;-51
2022/01/10 03:15:24;;;;;;;3.33;1.43;;;25.40;68.00;;;;;;4141632;28;20759;-48
2022/01/10 03:17:27;;;;;;;3.78;1.90;;;25.40;68.10;;;;;;4141564;28;20441;-46
2022/01/10 03:19:29;;;;;;;2.58;1.45;;;25.50;68.00;;;;;;4146690;28;20106;-50
2022/01/10 03:21:31;;;;;;;4.27;1.47;;;25.50;68.50;;;;;;4145426;28;20047;-49
2022/01/10 03:23:33;;;;;;;2.45;1.40;;;25.60;68.30;;;;;;4140558;28;20024;-49
2022/01/10 03:25:35;;;;;;;3.00;1.50;;;25.70;68.30;;;;;;4143582;28;20169;-46
2022/01/10 03:27:37;;;;;;;3.55;1.50;;;25.70;68.50;;;;;;4152709;28;20878;-45
2022/01/10 03:29:39;;;;;;;3.42;1.35;;;25.70;68.40;;;;;;4144399;28;20040;-48
2022/01/10 03:31:41;;;;;;;2.03;0.98;;;25.80;68.70;;;;;;4140609;28;20445;-51
2022/01/10 03:33:44;;;;;;;1.98;1.20;;;25.90;68.70;;;;;;4150413;28;20033;-45
2022/01/10 03:35:46;;;;;;;2.28;1.17;;;26.00;68.60;;;;;;4144600;28;20039;-50
2022/01/10 03:37:48;;;;;;;3.58;1.30;;;26.00;68.50;;;;;;4142328;28;20209;-47
2022/01/10 03:39:50;;;;;;;3.00;1.25;;;26.00;68.40;;;;;;4152156;28;20041;-50
2022/01/10 03:41:52;;;;;;;3.55;1.33;;;26.10;68.40;;;;;;4140874;28;20056;-49
2022/01/10 03:43:54;;;;;;;2.80;1.55;;;26.10;68.40;;;;;;4137710;28;20064;-48
2022/01/10 03:45:58;;;;;;;3.00;1.38;;;26.10;68.30;;;;;;4142133;28;20047;-46
2022/01/10 03:48:00;;;;;;;2.53;1.25;;;26.20;68.40;;;;;;4150642;28;20379;-45
2022/01/10 03:50:04;;;;;;;1.75;0.93;;;26.20;68.40;;;;;;4138210;28;20155;-49
2022/01/10 03:52:07;;;;;;;3.50;1.05;;;26.30;68.40;;;;;;4138565;28;20115;-49
2022/01/10 03:54:09;;;;;;;2.28;1.00;;;26.30;68.30;;;;;;4141167;28;20052;-46
2022/01/10 03:56:12;;;;;;;2.30;0.93;;;26.40;68.40;;;;;;4137517;28;20048;-46
2022/01/10 03:58:14;;;;;;;1.65;0.93;;;26.40;68.30;;;;;;4137893;28;20032;-47
2022/01/10 04:02:11;;;;;;;1.08;0.70;;;26.50;67.70;;;;;;4143838;27;20439;-51
2022/01/10 04:04:14;;;;;;;2.03;1.00;;;26.60;68.30;;;;;;4140291;28;20152;-47
2022/01/10 04:06:16;;;;;;;1.88;1.00;;;26.60;68.30;;;;;;4143865;28;20028;-48
2022/01/10 04:08:19;;;;;;;1.60;0.80;;;26.70;68.30;;;;;;4145701;28;20388;-46
2022/01/10 04:10:21;;;;;;;1.88;0.70;;;26.70;68.80;;;;;;4140824;28;20071;-45
2022/01/10 04:12:24;;;;;;;1.92;1.00;;;26.80;68.10;;;;;;4142008;28;20036;-47
2022/01/10 04:14:26;;;;;;;2.15;0.90;;;26.90;68.10;;;;;;4147168;28;20063;-50
2022/01/10 04:16:28;;;;;;;1.23;0.90;;;26.90;68.10;;;;;;4140846;28;20123;-47
2022/01/10 04:18:31;;;;;;;2.13;1.13;;;27.00;68.20;;;;;;4136395;28;20059;-46
2022/01/10 04:20:33;;;;;;;2.43;1.23;;;27.00;68.40;;;;;;4142843;28;20457;-51
2022/01/10 04:22:35;;;;;;;2.92;1.05;;;27.10;68.30;;;;;;4144029;28;20041;-51
2022/01/10 04:24:38;;;;;;;2.77;0.97;;;27.20;68.30;;;;;;4139316;28;20091;-49
2022/01/10 04:26:40;;;;;;;9.77;1.10;;;27.30;68.70;;;;;;4139868;28;20504;-50
2022/01/10 04:28:42;;;;;;;2.17;0.95;;;27.30;68.10;;;;;;4151058;28;20056;-49
2022/01/10 04:30:44;;;;;;;4.25;1.25;;;27.40;68.20;;;;;;4139632;28;20128;-44
2022/01/10 04:32:46;;;;;;;5.43;1.00;;;27.50;68.00;;;;;;4139380;28;20100;-46
2022/01/10 04:34:51;;;;;;;2.05;0.93;;;27.50;67.90;;;;;;4147221;28;20040;-49
2022/01/10 04:36:54;;;;;;;2.08;0.85;;;27.60;67.80;;;;;;4151789;28;20037;-50
2022/01/10 04:38:56;;;;;;;1.63;0.90;;;27.70;67.80;;;;;;4142418;28;20187;-46
2022/01/10 04:40:58;;;;;;;2.30;1.07;;;27.80;67.60;;;;;;4143917;28;20041;-51
2022/01/10 04:43:00;;;;;;;2.83;0.98;;;27.90;67.50;;;;;;4153416;28;20068;-48
2022/01/10 04:45:03;;;;;;;1.77;0.80;;;27.90;67.40;;;;;;4145208;28;20044;-46
2022/01/10 04:47:04;;;;;;;;;;;28.00;67.30;;;;;;4144059;28;20035;-48
2022/01/10 04:49:14;;;;;;;4.03;1.10;;;28.10;67.20;;;;;;4150162;28;20622;-49
2022/01/10 04:51:17;;;;;;;3.17;0.98;;;28.10;67.20;;;;;;4146266;28;20627;-48
2022/01/10 04:53:19;;;;;;;2.10;0.70;;;28.20;67.10;;;;;;4135016;28;20041;-50
2022/01/10 04:55:21;;;;;;;3.00;0.95;;;28.30;67.00;;;;;;4134916;28;20062;-51
2022/01/10 04:57:24;;;;;;;2.72;1.20;;;28.40;66.90;;;;;;4143061;28;20117;-48
2022/01/10 04:59:26;;;;;;;2.83;0.93;;;28.40;66.90;;;;;;4140338;28;21610;-47
2022/01/10 05:01:28;;;;;;;2.83;1.33;;;28.50;66.60;;;;;;4117825;28;20128;-46
2022/01/10 05:03:31;;;;;;;1.70;0.80;;;28.50;66.60;;;;;;4122105;28;20372;-52
2022/01/10 05:05:33;;;;;;;2.40;0.82;;;28.60;66.60;;;;;;4147798;28;20044;-47
2022/01/10 05:07:35;;;;;;;1.70;0.90;;;28.70;66.50;;;;;;4134909;28;20029;-49
2022/01/10 05:09:37;;;;;;;2.15;0.98;;;28.80;66.40;;;;;;4139221;28;20147;-47
2022/01/10 05:11:40;;;;;;;2.83;1.00;;;28.90;66.30;;;;;;4146014;28;20154;-48
2022/01/10 05:13:42;;;;;;;2.78;0.95;;;28.90;66.20;;;;;;4131137;28;20041;-50
2022/01/10 05:15:49;;;;;;;1.60;0.70;;;29.00;66.20;;;;;;4125901;28;20502;-48
2022/01/10 05:17:51;;;;;;;2.35;0.80;;;29.10;66.00;;;;;;4128320;28;20134;-50
2022/01/10 05:19:53;;;;;;;1.87;0.63;;;29.20;66.00;;;;;;4136945;28;20112;-49
2022/01/10 05:21:55;;;;;;;3.72;1.00;;;29.20;65.90;;;;;;4128955;28;20170;-46
2022/01/10 05:23:57;;;;;;;2.55;1.00;;;29.30;65.80;;;;;;4124900;28;20327;-50
2022/01/10 05:25:59;;;;;;;2.55;0.93;;;29.40;65.70;;;;;;4129781;28;20056;-48
2022/01/10 05:28:01;;;;;;;1.63;0.90;;;29.40;65.60;;;;;;4130460;28;21723;-50
2022/01/10 05:30:04;;;;;;;2.65;0.80;;;29.50;65.40;;;;;;4123216;28;20053;-50
2022/01/10 05:32:06;;;;;;;;;;;29.60;65.60;;;;;;4125147;28;20045;-47
2022/01/10 05:34:08;;;;;;;3.67;1.00;;;29.60;65.40;;;;;;4132688;28;20034;-54
2022/01/10 05:36:11;;;;;;;1.20;0.70;;;29.70;65.40;;;;;;4121885;28;20044;-50
2022/01/10 05:38:14;;;;;;;1.58;0.65;;;29.80;65.30;;;;;;4122185;28;20061;-48
2022/01/10 05:40:16;;;;;;;2.55;1.15;;;29.90;65.30;;;;;;4130219;28;20347;-53
2022/01/10 05:42:20;;;;;;;2.35;0.90;;;30.00;65.20;;;;;;4127040;28;20041;-49
2022/01/10 05:44:22;;;;;;;3.40;0.98;;;30.00;65.00;;;;;;4118372;28;20029;-46
2022/01/10 05:46:25;;;;;;;1.98;0.90;;;30.00;65.10;;;;;;4123692;28;20102;-48
2022/01/10 05:48:30;;;;;;;4.05;1.13;;;30.10;65.20;;;;;;4131582;28;20040;-47
2022/01/10 05:50:34;;;;;;;2.80;0.80;;;30.10;65.20;;;;;;4126666;28;21467;-48
2022/01/10 05:52:36;;;;;;;3.80;0.80;;;30.10;65.20;;;;;;4124190;28;20213;-48
2022/01/10 05:54:39;;;;;;;2.60;0.77;;;30.20;65.20;;;;;;4124177;28;20083;-50
2022/01/10 05:56:41;;;;;;;1.75;0.77;;;30.20;65.20;;;;;;4133131;28;20342;-47
2022/01/10 05:58:43;;;;;;;1.30;0.70;;;30.20;65.10;;;;;;4120618;28;20087;-46
2022/01/10 06:00:45;;;;;;;1.55;0.60;;;30.20;65.30;;;;;;4121476;28;20136;-48
2022/01/10 06:02:48;;;;;;;1.50;0.68;;;30.30;65.30;;;;;;4134671;28;20052;-51
2022/01/10 06:04:50;;;;;;;1.70;0.57;;;30.30;65.50;;;;;;4127969;28;20037;-47
2022/01/10 06:06:52;;;;;;;2.60;1.52;;;30.30;65.30;;;;;;4123025;28;20041;-48
2022/01/10 06:08:54;;;;;;;4.27;1.50;;;30.40;66.60;;;;;;4129030;28;20040;-53
2022/01/10 06:10:57;;;;;;;3.20;1.60;;;30.40;63.90;;;;;;4132163;28;20096;-48
2022/01/10 06:12:59;;;;;;;3.10;1.55;;;30.20;61.40;;;;;;4125780;28;20106;-51
2022/01/10 06:15:02;;;;;;;3.90;1.13;;;30.00;59.40;;;;;;4123025;28;20151;-51
2022/01/10 06:17:04;;;;;;;3.13;1.45;;;29.80;58.40;;;;;;4129596;28;20037;-49
2022/01/10 06:19:06;;;;;;;2.47;1.40;;;29.60;58.00;;;;;;4125637;28;20120;-49
2022/01/10 06:21:08;;;;;;;3.03;1.20;;;29.50;59.50;;;;;;4127528;28;20570;-50
2022/01/10 06:23:11;;;;;;;3.35;1.25;;;29.50;60.40;;;;;;4132947;28;20127;-52
2022/01/10 06:25:18;;;;;;;1.58;1.08;;;29.60;61.50;;;;;;4131500;28;20044;-50
2022/01/10 06:27:20;;;;;;;2.13;1.10;;;29.60;61.30;;;;;;4123825;28;20260;-49
2022/01/10 06:29:22;;;;;;;2.20;0.90;;;29.70;62.10;;;;;;4122272;28;20080;-50
2022/01/10 06:31:25;;;;;;;3.23;1.30;;;29.80;62.70;;;;;;4133957;28;20043;-50
2022/01/10 06:33:27;;;;;;;2.67;1.30;;;29.90;62.70;;;;;;4130742;28;20052;-49
2022/01/10 06:35:29;;;;;;;3.55;1.08;;;29.90;62.70;;;;;;4124838;28;20147;-49
2022/01/10 06:37:31;;;;;;;1.70;1.03;;;30.00;63.00;;;;;;4128178;28;20098;-45
2022/01/10 06:39:33;;;;;;;2.85;0.90;;;30.00;63.20;;;;;;4134464;28;20322;-47
2022/01/10 06:41:35;;;;;;;3.67;1.00;;;30.00;63.40;;;;;;4126344;28;20436;-50
2022/01/10 06:43:39;;;;;;;1.42;0.95;;;30.10;63.60;;;;;;4124089;28;21630;-50
2022/01/10 06:45:41;;;;;;;2.75;0.98;;;30.10;63.70;;;;;;4134849;28;20037;-46
2022/01/10 06:47:43;;;;;;;6.60;1.00;;;30.10;63.90;;;;;;4125660;28;20071;-50
2022/01/10 06:49:45;;;;;;;1.70;0.80;;;30.10;64.60;;;;;;4125350;28;20037;-49
2022/01/10 06:51:48;;;;;;;2.20;1.03;;;30.10;64.00;;;;;;4126417;28;20036;-52
2022/01/10 06:53:50;;;;;;;1.48;0.90;;;30.10;64.20;;;;;;4132046;28;20593;-53
2022/01/10 06:55:53;;;;;;;2.67;1.02;;;30.20;64.90;;;;;;4125350;28;20021;-54
2022/01/10 06:57:55;;;;;;;2.17;0.80;;;30.20;64.50;;;;;;4126866;28;20044;-49
2022/01/10 06:59:57;;;;;;;4.13;1.30;;;30.20;64.50;;;;;;4134005;28;20033;-54
2022/01/10 07:02:12;;;;;;;3.08;1.17;;;30.20;64.10;;;;;;4161775;27;20433;-52
2022/01/10 07:04:14;;;;;;;5.07;1.33;;;30.30;64.80;;;;;;4153868;28;20133;-54
2022/01/10 07:06:16;;;;;;;1.67;0.90;;;30.30;64.80;;;;;;4149931;28;20036;-53
2022/01/10 07:08:19;;;;;;;4.63;1.10;;;30.30;64.80;;;;;;4155884;28;20036;-53
2022/01/10 07:10:22;;;;;;;4.30;1.73;;;30.30;64.80;;;;;;4159670;28;20515;-51
2022/01/10 07:12:24;;;;;;;2.72;1.00;;;30.30;64.80;;;;;;4148622;28;20893;-54
2022/01/10 07:14:28;;;;;;;4.68;1.35;;;30.40;64.90;;;;;;4147636;28;20557;-54
2022/01/10 07:16:31;;;;;;;0.90;0.70;;;30.40;64.90;;;;;;4155370;28;20041;-55
2022/01/10 07:18:33;;;;;;;4.18;1.00;;;30.40;64.90;;;;;;4150854;28;20874;-49
2022/01/10 07:20:35;;;;;;;3.80;1.42;;;30.40;65.00;;;;;;4145102;28;20044;-52
2022/01/10 07:22:37;;;;;;;2.13;0.85;;;30.40;65.10;;;;;;4146001;28;20562;-49
2022/01/10 07:24:40;;;;;;;2.93;1.00;;;30.40;65.30;;;;;;4158547;28;20040;-49
2022/01/10 07:26:42;;;;;;;3.00;1.00;;;30.50;65.50;;;;;;4150946;28;20038;-50
2022/01/10 07:28:44;;;;;;;1.55;0.80;;;30.50;65.80;;;;;;4152540;28;20044;-52
2022/01/10 07:30:48;;;;;;;1.17;0.70;;;30.50;65.60;;;;;;4151988;28;20123;-49
2022/01/10 07:32:50;;;;;;;1.58;0.80;;;30.50;65.70;;;;;;4153472;28;20310;-51
2022/01/10 07:34:52;;;;;;;3.28;1.08;;;30.50;65.70;;;;;;4150088;28;20162;-48
2022/01/10 07:36:54;;;;;;;3.00;0.90;;;30.50;65.80;;;;;;4154646;28;20037;-53
2022/01/10 07:38:57;;;;;;;2.47;1.10;;;30.60;65.90;;;;;;4163066;28;20780;-50
2022/01/10 07:40:59;;;;;;;4.25;0.95;;;30.60;65.80;;;;;;4154896;28;20173;-47
2022/01/10 07:43:01;;;;;;;1.08;0.70;;;30.60;65.80;;;;;;4155222;28;20041;-50
2022/01/10 07:45:05;;;;;;;3.30;0.90;;;30.60;65.80;;;;;;4163827;28;20635;-48
2022/01/10 07:47:08;;;;;;;1.67;0.90;;;30.70;66.00;;;;;;4156379;28;20292;-53
2022/01/10 07:49:10;;;;;;;1.45;0.70;;;30.70;66.00;;;;;;4155645;28;20109;-51
2022/01/10 07:51:12;;;;;;;2.65;0.80;;;30.70;66.10;;;;;;4160083;28;20028;-49
2022/01/10 07:53:14;;;;;;;2.35;0.98;;;30.70;66.10;;;;;;4159497;28;20548;-51
2022/01/10 07:55:17;;;;;;;2.00;0.87;;;30.70;66.00;;;;;;4153669;28;20036;-54
2022/01/10 07:57:19;;;;;;;0.98;0.55;;;30.80;66.20;;;;;;4151995;28;20131;-49
2022/01/10 07:59:22;;;;;;;1.40;0.68;;;30.70;66.10;;;;;;4164129;28;20064;-52
2022/01/10 08:01:24;;;;;;;1.98;0.90;;;30.80;66.10;;;;;;4154412;28;20657;-52
2022/01/10 08:03:26;;;;;;;2.60;0.90;;;30.80;66.20;;;;;;4155021;28;20040;-52
2022/01/10 08:05:29;;;;;;;3.35;1.17;;;30.80;66.20;;;;;;4163742;28;20043;-52
2022/01/10 08:07:31;;;;;;;1.70;0.68;;;30.80;66.20;;;;;;4164193;28;20262;-53
2022/01/10 08:09:33;;;;;;;1.30;0.70;;;30.80;66.10;;;;;;4152024;28;20112;-54
2022/01/10 08:11:36;;;;;;;2.90;1.10;;;30.80;66.10;;;;;;4149414;28;20075;-51
2022/01/10 08:13:38;;;;;;;1.98;0.70;;;30.80;66.20;;;;;;4135032;28;20136;-48
2022/01/10 08:15:40;;;;;;;2.63;0.93;;;30.80;66.20;;;;;;4134470;28;20957;-48
2022/01/10 08:17:43;;;;;;;2.70;0.90;;;30.80;66.20;;;;;;4130467;28;20305;-47
2022/01/10 08:19:45;;;;;;;3.30;1.08;;;30.80;65.70;;;;;;4142542;28;20032;-51
2022/01/10 08:21:47;;;;;;;1.73;0.90;;;30.80;65.20;;;;;;4132108;28;20156;-50
2022/01/10 08:23:49;;;;;;;3.05;1.25;;;30.80;64.80;;;;;;4133915;28;20047;-53
2022/01/10 08:25:52;;;;;;;3.10;1.23;;;30.80;64.60;;;;;;4141323;28;20102;-46
2022/01/10 08:27:54;;;;;;;3.58;1.40;;;30.80;64.50;;;;;;4139988;28;20406;-50
2022/01/10 08:29:56;;;;;;;2.17;0.90;;;30.80;64.90;;;;;;4129600;28;20052;-46
2022/01/10 08:31:58;;;;;;;12.77;1.25;;;30.80;66.10;;;;;;4132881;28;20070;-46
2022/01/10 08:34:05;;;;;;;3.38;1.38;;;30.80;65.90;;;;;;4142361;28;20037;-50
2022/01/10 08:36:07;;;;;;;2.50;1.00;;;30.80;66.80;;;;;;4143347;28;22182;-47
2022/01/10 08:38:10;;;;;;;5.32;1.15;;;30.80;66.40;;;;;;4133948;28;20029;-53
2022/01/10 08:40:13;;;;;;;2.07;0.77;;;30.80;66.60;;;;;;4137763;28;20051;-48
2022/01/10 08:42:18;;;;;;;3.25;1.23;;;30.80;66.60;;;;;;4145111;28;20675;-50
2022/01/10 08:44:20;;;;;;;2.50;0.93;;;30.80;66.70;;;;;;4141587;28;21886;-48
2022/01/10 08:46:22;;;;;;;2.13;0.93;;;30.80;66.80;;;;;;4139905;28;20124;-50
2022/01/10 08:48:25;;;;;;;2.72;1.35;;;30.80;66.90;;;;;;4145564;28;20741;-46
2022/01/10 08:50:28;;;;;;;1.60;0.85;;;30.80;66.90;;;;;;4152849;28;20040;-48
2022/01/10 08:52:30;;;;;;;5.18;1.10;;;30.80;66.90;;;;;;4142154;28;20110;-46
2022/01/10 08:54:33;;;;;;;2.05;0.98;;;30.80;66.90;;;;;;4144810;28;20041;-50
2022/01/10 08:56:35;;;;;;;4.75;1.00;;;30.80;67.10;;;;;;4150253;28;20047;-46
2022/01/10 08:58:38;;;;;;;2.50;1.02;;;30.80;67.20;;;;;;4143635;28;20153;-45
2022/01/10 09:00:40;;;;;;;7.15;1.45;;;30.80;67.00;;;;;;4133838;28;20048;-53
2022/01/10 09:02:43;;;;;;;3.65;1.52;;;30.80;67.00;;;;;;4129663;28;20052;-48
2022/01/10 09:04:46;;;;;;;3.58;1.75;;;30.80;66.80;;;;;;4135316;28;20430;-47
2022/01/10 09:06:51;;;;;;;5.55;1.75;;;30.80;66.40;;;;;;4134966;28;20094;-44
2022/01/10 09:08:53;;;;;;;4.60;2.08;;;30.80;66.40;;;;;;4134527;28;20320;-48
2022/01/10 09:10:56;;;;;;;6.20;2.33;;;30.80;66.20;;;;;;4144647;28;20049;-45
2022/01/10 09:12:58;;;;;;;5.95;2.00;;;30.80;66.20;;;;;;4146244;28;21498;-46
2022/01/10 09:15:00;;;;;;;;;;;30.80;66.10;;;;;;4140432;28;20049;-48
2022/01/10 09:17:12;;;;;;;5.97;2.13;;;30.80;66.00;;;;;;4138122;28;19920;-47
2022/01/10 09:19:14;;;;;;;4.40;1.80;;;30.80;65.90;;;;;;4137615;28;20043;-52
2022/01/10 09:21:16;;;;;;;6.15;2.10;;;30.80;65.50;;;;;;4144653;28;20059;-50
2022/01/10 09:23:18;;;;;;;4.93;2.40;;;30.70;65.30;;;;;;4136977;28;20104;-46
2022/01/10 09:25:20;;;;;;;4.60;2.03;;;30.70;65.00;;;;;;4135075;28;20152;-47
2022/01/10 09:27:22;;;;;;;8.30;2.13;;;30.70;64.80;;;;;;4145059;28;20304;-51
2022/01/10 09:29:25;;;;;;;6.40;2.30;;;30.70;64.90;;;;;;4138390;28;20224;-50
2022/01/10 09:31:27;;;;;;;;;;;30.60;64.80;;;;;;4136891;28;20102;-47
2022/01/10 09:33:29;;;;;;;9.45;2.42;;;30.60;64.90;;;;;;4137297;28;20465;-47
2022/01/10 09:35:31;;;;;;;4.03;1.80;;;30.60;65.00;;;;;;4142919;28;20037;-47
2022/01/10 09:37:34;;;;;;;5.60;2.40;;;30.60;65.10;;;;;;4133488;28;20041;-47
2022/01/10 09:39:36;;;;;;;6.80;2.10;;;30.60;64.70;;;;;;4136852;28;20629;-50
2022/01/10 09:41:38;;;;;;;7.07;1.83;;;30.50;64.80;;;;;;4142629;28;20321;-46
2022/01/10 09:43:52;;;;;;;7.17;2.40;;;30.50;64.90;;;;;;4136495;28;20281;-46
2022/01/10 09:45:56;;;;;;;5.65;2.10;;;30.50;64.70;;;;;;4136001;28;21568;-50
2022/01/10 09:48:00;;;;;;;5.00;1.75;;;30.50;64.40;;;;;;4135591;28;20519;-49
2022/01/10 09:50:06;;;;;;;5.95;2.40;;;30.50;64.70;;;;;;4133656;28;20045;-51
2022/01/10 09:52:09;;;;;;;8.10;2.03;;;30.40;64.50;;;;;;4143640;28;20044;-50
2022/01/10 09:54:12;;;;;;;7.90;2.58;;;30.40;64.70;;;;;;4138979;28;20114;-50
2022/01/10 09:56:14;;;;;;;5.25;2.03;;;30.40;64.80;;;;;;4135697;28;20112;-50
2022/01/10 09:58:16;;;;;;;7.22;2.58;;;30.40;64.80;;;;;;4133541;28;20060;-47
2022/01/10 10:02:14;;;;;;;9.32;2.08;;;30.40;64.30;;;;;;4210566;27;20442;-46
2022/01/10 10:04:17;;;;;;;5.78;2.00;;;30.50;65.00;;;;;;4216963;27;20095;-46
2022/01/10 10:06:20;;;;;;;5.07;1.90;;;30.50;65.10;;;;;;4217010;27;20145;-45
2022/01/10 10:08:24;;;;;;;6.32;1.65;;;30.50;65.00;;;;;;4209543;27;20045;-48
2022/01/10 10:10:29;;;;;;;5.13;1.90;;;30.40;65.00;;;;;;4209989;27;20077;-49
2022/01/10 10:12:31;;;;;;;5.50;1.85;;;30.40;65.00;;;;;;4219509;27;20031;-48
2022/01/10 10:14:33;;;;;;;4.32;1.67;;;30.40;64.90;;;;;;4218051;27;20041;-46
2022/01/10 10:16:37;;;;;;;3.90;1.60;;;30.40;65.00;;;;;;4212672;27;20045;-46
2022/01/10 10:18:40;;;;;;;4.35;1.73;;;30.40;64.80;;;;;;4193798;27;20406;-49
2022/01/10 10:20:43;;;;;;;5.38;1.92;;;30.40;64.70;;;;;;4225032;27;20047;-47
2022/01/10 10:22:47;;;;;;;6.13;2.28;;;30.40;64.80;;;;;;4196163;27;20039;-49
2022/01/10 10:24:49;;;;;;;4.13;1.73;;;30.40;64.70;;;;;;4212750;27;20038;-48
2022/01/10 10:26:52;;;;;;;3.83;1.80;;;30.30;64.50;;;;;;4212498;27;20178;-52
2022/01/10 10:28:56;;;;;;;3.45;1.95;;;30.40;64.70;;;;;;4219327;27;20035;-47
2022/01/10 10:30:59;;;;;;;4.10;1.88;;;30.40;64.70;;;;;;4209366;27;20112;-48
2022/01/10 10:33:17;;;;;;;7.63;2.20;;;30.40;64.60;;;;;;4211328;27;20035;-46
2022/01/10 10:35:19;;;;;;;5.68;2.08;;;30.30;64.50;;;;;;4209410;27;20039;-50
2022/01/10 10:37:21;;;;;;;4.78;2.08;;;30.30;64.50;;;;;;4209889;27;20129;-45
2022/01/10 10:39:27;;;;;;;6.27;2.10;;;30.30;64.80;;;;;;4220613;27;20699;-46
2022/01/10 10:41:29;;;;;;;6.63;1.95;;;30.30;64.80;;;;;;4214130;27;20057;-47
2022/01/10 10:43:37;;;;;;;4.97;1.63;;;30.30;65.30;;;;;;4208545;27;20118;-46
2022/01/10 10:45:39;;;;;;;6.70;1.70;;;30.30;65.70;;;;;;4208447;27;20282;-44
2022/01/10 10:47:44;;;;;;;7.40;2.25;;;30.20;65.90;;;;;;4223187;27;20038;-47
2022/01/10 10:49:51;;;;;;;3.45;1.90;;;30.20;65.90;;;;;;4220103;27;20149;-50
2022/01/10 10:51:53;;;;;;;5.53;2.30;;;30.30;66.10;;;;;;4209342;27;22230;-47